Frankford, Minnesota
Current Conditions -  °F | °C
As of 8:54 AM on Wednesday 22 Oct 2014 (Local Time) from KRST Reporting Station
Clear Clear  
Wind Chill: 33°   Ceiling: Unl
Heat Index: 41°   Visibility: 10mi
Dew Point: 36°   Wind: 16mph
Humidity: 82%   Direction: 160°SSE
Pressure: 30.25"   Gusts: 22mph
Location:  43.7143°N, 92.5748°W
Report Text: KRST 221354Z 16014G19KT 10SM CLR 05/02 A3025 RMK AO2 SLP253 T00500022
Loading
Personal Weather Stations






























Interactive Weather Map
Tropical Storm Tracking
New forecast layout! Learn more

10-Day Weather Forecast

Advertisements
Track Severe Weather on mobile